createdAt,value
2019-04-26T00:00:52.270Z,12.50
2019-04-26T00:03:51.315Z,12.50
2019-04-26T00:06:33.438Z,12.30
2019-04-26T00:12:42.613Z,12.30
2019-04-26T00:18:39.549Z,12.10
2019-04-26T00:21:20.807Z,12.00
2019-04-26T00:24:00.252Z,12.00
2019-04-26T00:26:48.376Z,12.00
2019-04-26T00:29:36.210Z,12.00
2019-04-26T00:32:24.071Z,11.90
2019-04-26T00:35:12.907Z,11.90
2019-04-26T00:38:01.483Z,12.00
2019-04-26T00:43:58.250Z,12.00
2019-04-26T00:46:46.170Z,12.00
2019-04-26T00:49:43.669Z,11.90
2019-04-26T00:52:24.002Z,11.90
2019-04-26T00:55:11.837Z,11.70
2019-04-26T00:57:59.720Z,11.70
2019-04-26T01:03:56.447Z,11.60
2019-04-26T01:09:52.963Z,11.60
2019-04-26T01:12:40.820Z,11.60
2019-04-26T01:15:28.903Z,11.50
2019-04-26T01:21:18.615Z,11.50
2019-04-26T01:23:59.762Z,11.50
2019-04-26T01:26:40.606Z,11.50
2019-04-26T01:29:21.821Z,11.50
2019-04-26T01:32:03.286Z,11.50
2019-04-26T01:34:43.905Z,11.60
2019-04-26T01:37:24.784Z,11.60
2019-04-26T01:40:07.923Z,11.60
2019-04-26T01:48:46.997Z,11.70
2019-04-26T01:51:28.770Z,11.60
2019-04-26T01:54:09.842Z,11.60
2019-04-26T01:56:50.591Z,11.60
2019-04-26T01:59:31.638Z,11.60
2019-04-26T02:05:28.026Z,11.50
2019-04-26T02:08:09.130Z,11.50
2019-04-26T02:10:50.344Z,11.50
2019-04-26T02:13:31.083Z,11.60
2019-04-26T02:16:12.067Z,11.60
2019-04-26T02:18:53.175Z,11.50
2019-04-26T02:24:44.486Z,11.50
2019-04-26T02:30:14.524Z,11.50
2019-04-26T02:32:55.545Z,11.40
2019-04-26T02:35:39.376Z,11.40
2019-04-26T02:41:11.916Z,11.40
2019-04-26T02:43:52.363Z,11.40
2019-04-26T02:54:47.358Z,11.40
2019-04-26T03:20:12.361Z,11.30
2019-04-26T03:22:52.896Z,11.30
2019-04-26T03:25:35.193Z,11.30
2019-04-26T03:28:15.866Z,11.40
2019-04-26T03:30:56.592Z,11.40
2019-04-26T03:33:42.986Z,11.40
2019-04-26T03:39:21.008Z,11.50
2019-04-26T03:42:06.578Z,11.50
2019-04-26T03:44:48.006Z,11.50
2019-04-26T03:47:29.091Z,11.60
2019-04-26T03:50:09.748Z,11.60
2019-04-26T03:52:50.164Z,11.50
2019-04-26T03:55:32.261Z,11.50
2019-04-26T03:58:14.828Z,11.50
2019-04-26T04:00:59.300Z,11.50
2019-04-26T04:03:57.495Z,11.60
2019-04-26T04:06:56.572Z,11.60
2019-04-26T04:09:20.598Z,11.60
2019-04-26T04:12:11.246Z,11.60
2019-04-26T04:14:45.009Z,11.60
2019-04-26T04:20:41.030Z,11.60
2019-04-26T04:23:49.388Z,11.60
2019-04-26T04:26:56.796Z,11.60
2019-04-26T04:30:04.406Z,11.60
2019-04-26T04:33:11.588Z,11.60
2019-04-26T04:39:34.748Z,11.70
2019-04-26T05:04:22.743Z,11.50
2019-04-26T05:07:29.919Z,11.50
2019-04-26T05:13:50.861Z,11.40
2019-04-26T05:16:59.756Z,11.40
2019-04-26T05:20:06.922Z,11.40
2019-04-26T05:23:15.002Z,11.40
2019-04-26T05:26:41.252Z,11.40
2019-04-26T05:29:49.936Z,11.40
2019-04-26T05:32:57.139Z,11.50
2019-04-26T05:36:06.047Z,11.50
2019-04-26T05:39:13.446Z,11.40
2019-04-26T05:46:00.604Z,11.40
2019-04-26T05:52:28.631Z,11.40
2019-04-26T05:55:55.957Z,11.30
2019-04-26T05:58:45.035Z,11.30
2019-04-26T06:02:11.443Z,11.20
2019-04-26T06:05:32.947Z,11.20
2019-04-26T06:08:59.612Z,11.10
2019-04-26T06:12:12.381Z,11.10
2019-04-26T06:15:24.590Z,11.10
2019-04-26T06:18:40.827Z,11.10
2019-04-26T06:21:33.530Z,11.10
2019-04-26T06:27:13.735Z,11.10
2019-04-26T06:29:50.804Z,11.00
2019-04-26T07:14:40.103Z,11.40
2019-04-26T07:17:20.999Z,11.40
2019-04-26T07:25:45.315Z,11.50
2019-04-26T07:28:25.918Z,11.50
2019-04-26T07:31:08.235Z,11.60
2019-04-26T07:33:50.799Z,11.50
2019-04-26T07:36:31.635Z,11.50
2019-04-26T07:39:20.239Z,11.50
2019-04-26T07:42:01.559Z,11.60
2019-04-26T07:47:37.654Z,11.60
2019-04-26T07:50:18.654Z,11.60
2019-04-26T07:52:59.443Z,11.70
2019-04-26T07:55:40.203Z,11.70
2019-04-26T07:58:21.079Z,11.70
2019-04-26T08:01:05.497Z,11.80
2019-04-26T08:03:51.519Z,11.80
2019-04-26T08:06:33.031Z,11.80
2019-04-26T08:09:25.157Z,11.80
2019-04-26T08:11:56.115Z,11.80
2019-04-26T08:14:38.714Z,11.90
2019-04-26T08:17:44.765Z,11.90
2019-04-26T08:23:38.038Z,11.90
2019-04-26T08:26:01.792Z,11.90
2019-04-26T08:28:42.787Z,11.90
2019-04-26T08:31:25.581Z,12.00
2019-04-26T08:34:08.658Z,12.50
2019-04-26T08:39:45.105Z,13.40
2019-04-26T08:42:31.161Z,13.30
2019-04-26T08:45:33.523Z,13.00
2019-04-26T08:53:49.551Z,12.50
2019-04-26T08:56:30.043Z,12.40
2019-04-26T08:59:10.422Z,12.40
2019-04-26T09:01:56.843Z,12.30
2019-04-26T09:07:29.111Z,12.10
2019-04-26T09:10:11.188Z,12.00
2019-04-26T09:12:52.738Z,12.00
2019-04-26T09:15:33.531Z,12.00
2019-04-26T09:18:14.067Z,12.00
2019-04-26T09:20:55.000Z,12.00
2019-04-26T09:23:54.999Z,12.00
2019-04-26T09:26:54.435Z,12.10
2019-04-26T09:29:54.046Z,12.00
2019-04-26T09:32:39.223Z,12.00
2019-04-26T09:35:19.894Z,11.90
2019-04-26T09:38:00.974Z,11.90
2019-04-26T09:40:41.566Z,11.90
2019-04-26T09:43:28.269Z,12.00
2019-04-26T09:49:32.287Z,12.00
2019-04-26T09:55:07.728Z,12.20
2019-04-26T09:57:48.506Z,12.20
2019-04-26T10:00:30.570Z,12.30
2019-04-26T10:03:11.390Z,12.40
2019-04-26T10:05:52.244Z,12.50
2019-04-26T10:08:34.802Z,12.50
2019-04-26T10:13:58.455Z,12.50
2019-04-26T10:19:24.723Z,12.40
2019-04-26T10:22:08.691Z,12.50
2019-04-26T10:27:40.784Z,12.50
2019-04-26T10:33:10.393Z,12.50
2019-04-26T10:38:33.472Z,12.40
2019-04-26T10:41:14.135Z,12.40
2019-04-26T10:43:54.803Z,12.40
2019-04-26T10:46:36.027Z,12.50
2019-04-26T10:49:16.523Z,12.50
2019-04-26T10:51:57.482Z,12.60
2019-04-26T10:54:41.071Z,12.70
2019-04-26T11:00:17.991Z,12.80
2019-04-26T11:03:00.033Z,12.90
2019-04-26T11:05:40.376Z,13.00
2019-04-26T11:08:20.976Z,13.10
2019-04-26T11:11:01.426Z,13.20
2019-04-26T11:13:41.928Z,13.20
2019-04-26T11:16:22.591Z,13.30
2019-04-26T11:19:03.645Z,13.30
2019-04-26T11:21:43.962Z,13.40
2019-04-26T11:24:24.603Z,13.40
2019-04-26T11:27:05.401Z,13.30
2019-04-26T11:29:53.526Z,13.20
2019-04-26T11:32:33.138Z,13.10
2019-04-26T11:35:13.470Z,13.10
2019-04-26T11:37:55.105Z,13.20
2019-04-26T11:40:36.607Z,13.30
2019-04-26T11:43:19.573Z,13.30
2019-04-26T11:46:04.383Z,13.40
2019-04-26T11:48:42.200Z,13.40
2019-04-26T11:51:23.471Z,13.40
2019-04-26T11:54:04.883Z,13.40
2019-04-26T11:56:45.191Z,13.40
2019-04-26T11:59:27.008Z,13.40
2019-04-26T12:02:12.287Z,13.50
2019-04-26T12:04:59.600Z,13.70
2019-04-26T12:07:44.118Z,13.70
2019-04-26T12:10:27.129Z,13.80
2019-04-26T12:13:08.271Z,13.80
2019-04-26T12:15:48.646Z,13.70
2019-04-26T12:18:29.534Z,13.70
2019-04-26T12:21:10.443Z,13.60
2019-04-26T12:23:55.383Z,13.60
2019-04-26T12:26:42.639Z,13.40
2019-04-26T12:29:16.571Z,13.40
2019-04-26T12:31:57.242Z,13.30
2019-04-26T12:34:37.595Z,13.20
2019-04-26T12:37:20.911Z,13.10
2019-04-26T12:40:01.007Z,13.00
2019-04-26T12:42:43.452Z,12.90
2019-04-26T12:45:47.423Z,12.90
2019-04-26T12:48:29.178Z,12.80
2019-04-26T12:51:11.986Z,12.80
2019-04-26T12:53:52.184Z,12.80
2019-04-26T12:56:33.757Z,12.80
2019-04-26T12:59:15.917Z,12.80
2019-04-26T13:02:05.473Z,12.80
2019-04-26T13:07:35.364Z,12.80
2019-04-26T13:10:37.849Z,12.80
2019-04-26T13:13:22.875Z,12.70
2019-04-26T13:16:07.794Z,12.80
2019-04-26T13:21:33.176Z,13.50
2019-04-26T13:24:13.296Z,14.30
2019-04-26T13:26:53.764Z,15.10
2019-04-26T13:29:34.455Z,15.40
2019-04-26T13:32:15.283Z,15.60
2019-04-26T13:34:55.963Z,15.80
2019-04-26T13:37:37.046Z,15.80
2019-04-26T13:40:19.267Z,15.90
2019-04-26T13:43:00.296Z,16.10
2019-04-26T13:45:41.134Z,16.30
2019-04-26T13:48:47.315Z,16.40
2019-04-26T13:51:29.612Z,16.50
2019-04-26T13:54:09.935Z,16.60
2019-04-26T13:56:50.556Z,16.60
2019-04-26T14:02:20.251Z,16.60
2019-04-26T14:07:49.518Z,16.60
2019-04-26T14:13:20.797Z,17.30
2019-04-26T14:16:01.399Z,17.10
2019-04-26T14:21:29.191Z,16.70
2019-04-26T14:49:38.968Z,15.70
2019-04-26T14:52:14.387Z,15.70
2019-04-26T14:54:54.984Z,15.50
2019-04-26T14:57:35.535Z,15.40
2019-04-26T15:00:21.186Z,15.30
2019-04-26T15:03:04.939Z,15.30
2019-04-26T15:05:59.839Z,15.20
2019-04-26T15:08:46.920Z,15.20
2019-04-26T15:11:23.204Z,15.20
2019-04-26T15:14:03.990Z,15.20
2019-04-26T15:16:45.070Z,15.10
2019-04-26T15:19:26.383Z,15.10
2019-04-26T15:22:10.432Z,15.20
2019-04-26T15:24:49.971Z,15.20
2019-04-26T15:27:32.192Z,15.20
2019-04-26T15:30:13.428Z,15.20
2019-04-26T15:32:53.849Z,15.10
2019-04-26T15:35:35.860Z,15.10
2019-04-26T15:38:16.880Z,15.10
2019-04-26T15:41:22.277Z,15.10
2019-04-26T15:44:24.833Z,15.10
2019-04-26T15:50:29.559Z,15.10
2019-04-26T15:53:14.588Z,15.10
2019-04-26T15:55:53.911Z,15.10
2019-04-26T15:58:38.668Z,15.10
2019-04-26T16:01:17.394Z,15.10
2019-04-26T16:03:58.515Z,15.20
2019-04-26T16:06:41.907Z,15.20
2019-04-26T16:09:23.003Z,15.30
2019-04-26T16:12:03.871Z,15.30
2019-04-26T16:14:44.567Z,15.10
2019-04-26T16:17:25.902Z,15.10
2019-04-26T16:20:06.942Z,15.10
2019-04-26T16:22:49.154Z,15.10
2019-04-26T16:25:29.914Z,15.10
2019-04-26T16:28:33.299Z,15.00
2019-04-26T16:34:18.431Z,15.00
2019-04-26T16:36:59.040Z,15.00
2019-04-26T16:39:40.188Z,15.00
2019-04-26T16:42:20.883Z,14.90
2019-04-26T16:45:04.548Z,14.90
2019-04-26T16:47:48.588Z,14.90
2019-04-26T16:50:31.671Z,14.90
2019-04-26T16:53:36.270Z,14.80
2019-04-26T16:55:53.278Z,14.80
2019-04-26T17:01:23.731Z,14.80
2019-04-26T17:04:08.048Z,14.70
2019-04-26T17:06:46.674Z,14.80
2019-04-26T17:09:29.634Z,14.70
2019-04-26T17:12:10.578Z,14.70
2019-04-26T17:14:52.597Z,14.60
2019-04-26T17:17:33.467Z,14.60
2019-04-26T17:20:14.386Z,14.50
2019-04-26T17:23:03.326Z,14.50
2019-04-26T17:26:09.230Z,14.50
2019-04-26T17:28:50.075Z,14.50
2019-04-26T17:31:33.503Z,14.40
2019-04-26T17:34:14.744Z,14.40
2019-04-26T17:36:55.235Z,14.40
2019-04-26T17:39:36.019Z,14.30
2019-04-26T17:42:16.652Z,14.30
2019-04-26T17:44:57.613Z,14.20
2019-04-26T17:47:42.918Z,14.20
2019-04-26T17:50:23.884Z,14.10
2019-04-26T17:53:06.511Z,14.00
2019-04-26T17:55:52.903Z,14.00
2019-04-26T17:58:32.387Z,14.00
2019-04-26T18:01:29.317Z,13.90
2019-04-26T18:03:55.899Z,13.90
2019-04-26T18:06:37.175Z,13.80
2019-04-26T18:12:04.628Z,13.70
2019-04-26T18:17:33.058Z,13.70
2019-04-26T18:31:22.169Z,13.40
2019-04-26T18:34:04.131Z,13.40
2019-04-26T18:47:47.218Z,13.30
2019-04-26T18:53:36.967Z,13.20
2019-04-26T18:56:15.355Z,13.10
2019-04-26T18:58:56.259Z,13.00
2019-04-26T19:01:40.863Z,13.00
2019-04-26T19:04:19.019Z,12.90
2019-04-26T19:06:59.803Z,12.90
2019-04-26T19:09:56.621Z,12.90
2019-04-26T19:12:26.819Z,12.80
2019-04-26T19:15:24.487Z,12.80
2019-04-26T19:18:23.788Z,12.80
2019-04-26T19:21:25.998Z,12.80
2019-04-26T19:24:11.672Z,12.80
2019-04-26T19:26:49.933Z,12.70
2019-04-26T19:29:35.592Z,12.80
2019-04-26T19:32:13.691Z,12.70
2019-04-26T19:34:54.479Z,12.70
2019-04-26T19:37:37.114Z,12.70
2019-04-26T19:40:18.327Z,12.60
2019-04-26T19:43:03.232Z,12.60
2019-04-26T19:46:06.386Z,12.50
2019-04-26T19:52:22.057Z,12.40
2019-04-26T19:55:23.947Z,12.50
2019-04-26T19:58:16.007Z,12.40
2019-04-26T20:00:52.727Z,12.40
2019-04-26T20:03:33.893Z,12.40
2019-04-26T20:06:18.876Z,12.40
2019-04-26T20:08:56.935Z,12.30
2019-04-26T20:11:37.767Z,12.30
2019-04-26T20:14:19.145Z,12.30
2019-04-26T20:17:01.698Z,12.30
2019-04-26T20:19:42.747Z,12.30
2019-04-26T20:22:28.298Z,12.30
2019-04-26T20:25:06.787Z,12.30
2019-04-26T20:27:48.103Z,12.30
2019-04-26T20:30:57.445Z,12.20
2019-04-26T20:33:36.038Z,12.30
2019-04-26T20:36:16.454Z,12.30
2019-04-26T20:38:57.210Z,12.20
2019-04-26T20:41:38.091Z,12.20
2019-04-26T20:44:23.823Z,12.20
2019-04-26T20:47:03.384Z,12.20
2019-04-26T20:49:49.622Z,12.20
2019-04-26T20:52:26.384Z,12.20
2019-04-26T20:55:08.285Z,12.10
2019-04-26T20:57:48.622Z,12.10
2019-04-26T21:00:31.523Z,12.20
2019-04-26T21:03:23.156Z,12.20
2019-04-26T21:05:59.036Z,12.30
2019-04-26T21:08:37.620Z,12.30
2019-04-26T21:11:18.423Z,12.30
2019-04-26T21:14:01.872Z,12.30
2019-04-26T21:16:43.645Z,12.20
2019-04-26T21:19:24.676Z,12.20
2019-04-26T21:22:05.262Z,12.20
2019-04-26T21:24:46.243Z,12.20
2019-04-26T21:27:46.384Z,12.10
2019-04-26T21:33:33.128Z,11.90
2019-04-26T21:36:34.741Z,11.90
2019-04-26T21:42:23.810Z,11.90
2019-04-26T21:45:03.593Z,11.90
2019-04-26T21:47:44.881Z,11.90
2019-04-26T21:50:29.118Z,11.90
2019-04-26T21:53:08.775Z,11.90
2019-04-26T21:55:49.587Z,11.90
2019-04-26T21:58:30.124Z,11.90
2019-04-26T22:01:14.637Z,11.90
2019-04-26T22:03:58.149Z,11.90
2019-04-26T22:06:36.355Z,11.90
2019-04-26T22:12:09.082Z,11.90
2019-04-26T22:17:40.462Z,11.90
2019-04-26T22:23:02.279Z,11.80
2019-04-26T22:25:46.267Z,11.80
2019-04-26T22:51:05.048Z,11.80
2019-04-26T23:02:08.480Z,11.70
2019-04-26T23:04:48.939Z,11.70
2019-04-26T23:07:29.667Z,11.70
2019-04-26T23:10:13.031Z,11.60
2019-04-26T23:13:16.202Z,11.60
2019-04-26T23:16:16.005Z,11.60
2019-04-26T23:19:00.810Z,11.60
2019-04-26T23:21:52.976Z,11.60
2019-04-26T23:24:26.451Z,11.60
2019-04-26T23:27:07.075Z,11.60
2019-04-26T23:29:49.948Z,11.60
2019-04-26T23:32:30.412Z,11.50
2019-04-26T23:35:11.211Z,11.50
2019-04-26T23:37:52.214Z,11.50
2019-04-26T23:40:33.469Z,11.50
2019-04-26T23:43:14.587Z,11.50
2019-04-26T23:45:55.320Z,11.40
2019-04-26T23:48:36.167Z,11.40
2019-04-26T23:51:16.827Z,11.40
2019-04-26T23:53:57.855Z,11.30
2019-04-26T23:56:38.307Z,11.30
2019-04-26T23:59:20.883Z,11.30
